sensor_id;sensor_type;location;lat;lon;timestamp;pressure;altitude;pressure_sealevel;temperature;humidity
83152;BME280;73381;58.502;8.624;2023-10-31T00:01:51;98854.84;;;-0.43;77.47
83152;BME280;73381;58.502;8.624;2023-10-31T00:04:53;98809.19;;;-0.76;77.99
83152;BME280;73381;58.502;8.624;2023-10-31T00:07:55;98653.56;;;-1.78;77.19
83152;BME280;73381;58.502;8.624;2023-10-31T00:10:57;98721.63;;;-1.31;76.99
83152;BME280;73381;58.502;8.624;2023-10-31T00:14:00;98863.44;;;-0.43;77.52
83152;BME280;73381;58.502;8.624;2023-10-31T00:17:02;98800.53;;;-0.91;77.71
83152;BME280;73381;58.502;8.624;2023-10-31T00:20:05;98805.84;;;-0.78;76.79
83152;BME280;73381;58.502;8.624;2023-10-31T00:23:07;98864.47;;;-0.45;76.87
83152;BME280;73381;58.502;8.624;2023-10-31T00:26:10;98853.72;;;-0.53;77.51
83152;BME280;73381;58.502;8.624;2023-10-31T00:29:13;98863.63;;;-0.46;77.68
83152;BME280;73381;58.502;8.624;2023-10-31T00:32:15;98860.78;;;-0.41;77.28
83152;BME280;73381;58.502;8.624;2023-10-31T00:35:17;98861.72;;;-0.42;77.72
83152;BME280;73381;58.502;8.624;2023-10-31T00:38:19;98715.06;;;-1.36;77.14
83152;BME280;73381;58.502;8.624;2023-10-31T00:41:21;98824.22;;;-0.67;77.70
83152;BME280;73381;58.502;8.624;2023-10-31T00:44:24;98869.22;;;-0.38;77.29
83152;BME280;73381;58.502;8.624;2023-10-31T00:47:26;98795.16;;;-0.87;77.22
83152;BME280;73381;58.502;8.624;2023-10-31T00:50:34;98693.69;;;-1.40;76.90
83152;BME280;73381;58.502;8.624;2023-10-31T00:53:36;98866.13;;;-0.44;76.95
83152;BME280;73381;58.502;8.624;2023-10-31T00:56:38;98719.22;;;-1.34;77.64
83152;BME280;73381;58.502;8.624;2023-10-31T00:59:41;98677.31;;;-1.56;78.36
83152;BME280;73381;58.502;8.624;2023-10-31T01:02:43;98676.19;;;-1.66;77.43
83152;BME280;73381;58.502;8.624;2023-10-31T01:05:45;98803.94;;;-0.90;77.38
83152;BME280;73381;58.502;8.624;2023-10-31T01:08:47;98674.16;;;-1.61;76.99
83152;BME280;73381;58.502;8.624;2023-10-31T01:11:49;98817.88;;;-0.77;77.01
83152;BME280;73381;58.502;8.624;2023-10-31T01:14:52;98868.47;;;-0.40;76.75
83152;BME280;73381;58.502;8.624;2023-10-31T01:17:54;98863.72;;;-0.47;77.50
83152;BME280;73381;58.502;8.624;2023-10-31T01:20:56;98851.22;;;-0.55;78.30
83152;BME280;73381;58.502;8.624;2023-10-31T01:23:58;98790.75;;;-1.01;77.76
83152;BME280;73381;58.502;8.624;2023-10-31T01:27:00;98807.69;;;-0.80;78.00
83152;BME280;73381;58.502;8.624;2023-10-31T01:30:05;98697.16;;;-1.41;77.97
83152;BME280;73381;58.502;8.624;2023-10-31T01:33:07;98828.88;;;-0.57;77.74
83152;BME280;73381;58.502;8.624;2023-10-31T01:36:10;98817.97;;;-0.78;77.36
83152;BME280;73381;58.502;8.624;2023-10-31T01:39:12;98858.94;;;-0.39;76.87
83152;BME280;73381;58.502;8.624;2023-10-31T01:42:14;98657.13;;;-1.50;76.76
83152;BME280;73381;58.502;8.624;2023-10-31T01:45:17;98727.28;;;-1.08;77.75
83152;BME280;73381;58.502;8.624;2023-10-31T01:48:19;98674.88;;;-1.43;76.80
83152;BME280;73381;58.502;8.624;2023-10-31T01:51:22;98761.56;;;-0.89;76.52
83152;BME280;73381;58.502;8.624;2023-10-31T01:54:23;98848.94;;;-0.31;76.72
83152;BME280;73381;58.502;8.624;2023-10-31T01:57:25;98877.56;;;-0.33;76.73
83152;BME280;73381;58.502;8.624;2023-10-31T02:00:29;98658.97;;;-1.52;77.13
83152;BME280;73381;58.502;8.624;2023-10-31T02:03:30;98636.44;;;-1.65;77.26
83152;BME280;73381;58.502;8.624;2023-10-31T02:06:32;98855.44;;;-0.38;77.13
83152;BME280;73381;58.502;8.624;2023-10-31T02:09:34;98838.06;;;-0.52;77.61
83152;BME280;73381;58.502;8.624;2023-10-31T02:12:37;98819.28;;;-0.71;77.46
83152;BME280;73381;58.502;8.624;2023-10-31T02:15:40;98853.56;;;-0.36;77.48
83152;BME280;73381;58.502;8.624;2023-10-31T02:18:42;98850.97;;;-0.36;77.17
83152;BME280;73381;58.502;8.624;2023-10-31T02:21:45;98581.31;;;-1.97;77.51
83152;BME280;73381;58.502;8.624;2023-10-31T02:24:47;98839.88;;;-0.38;76.97
83152;BME280;73381;58.502;8.624;2023-10-31T02:27:49;98744.13;;;-1.01;77.84
83152;BME280;73381;58.502;8.624;2023-10-31T02:30:51;98746.19;;;-0.92;77.66
83152;BME280;73381;58.502;8.624;2023-10-31T02:33:53;98838.53;;;-0.45;77.56
83152;BME280;73381;58.502;8.624;2023-10-31T02:36:56;98820.56;;;-0.48;78.35
83152;BME280;73381;58.502;8.624;2023-10-31T02:39:58;98613.38;;;-1.70;77.45
83152;BME280;73381;58.502;8.624;2023-10-31T02:43:00;98823.16;;;-0.48;78.29
83152;BME280;73381;58.502;8.624;2023-10-31T02:46:02;98826.78;;;-0.51;77.92
83152;BME280;73381;58.502;8.624;2023-10-31T02:49:04;98736.84;;;-0.95;77.44
83152;BME280;73381;58.502;8.624;2023-10-31T02:52:07;98642.75;;;-1.55;77.88
83152;BME280;73381;58.502;8.624;2023-10-31T02:55:09;98651.84;;;-1.48;77.29
83152;BME280;73381;58.502;8.624;2023-10-31T02:58:11;98672.78;;;-1.37;77.75
83152;BME280;73381;58.502;8.624;2023-10-31T03:01:12;98627.06;;;-1.52;77.63
83152;BME280;73381;58.502;8.624;2023-10-31T03:04:14;98823.66;;;-0.42;77.86
83152;BME280;73381;58.502;8.624;2023-10-31T03:07:17;98583.13;;;-1.84;78.04
83152;BME280;73381;58.502;8.624;2023-10-31T03:10:20;98661.69;;;-1.39;77.46
83152;BME280;73381;58.502;8.624;2023-10-31T03:13:22;98735.31;;;-0.83;77.72
83152;BME280;73381;58.502;8.624;2023-10-31T03:16:24;98794.44;;;-0.45;77.54
83152;BME280;73381;58.502;8.624;2023-10-31T03:19:26;98795.38;;;-0.46;77.73
83152;BME280;73381;58.502;8.624;2023-10-31T03:22:30;98610.09;;;-1.58;77.50
83152;BME280;73381;58.502;8.624;2023-10-31T03:25:31;98704.47;;;-1.17;77.77
83152;BME280;73381;58.502;8.624;2023-10-31T03:28:33;98796.31;;;-0.47;77.56
83152;BME280;73381;58.502;8.624;2023-10-31T03:31:35;98569.19;;;-1.81;78.38
83152;BME280;73381;58.502;8.624;2023-10-31T03:34:37;98720.28;;;-0.92;78.18
83152;BME280;73381;58.502;8.624;2023-10-31T03:37:41;98710.44;;;-1.01;78.06
83152;BME280;73381;58.502;8.624;2023-10-31T03:40:43;98762.16;;;-0.84;78.60
83152;BME280;73381;58.502;8.624;2023-10-31T03:43:45;98797.22;;;-0.48;78.51
83152;BME280;73381;58.502;8.624;2023-10-31T03:46:47;98685.00;;;-1.09;78.08
83152;BME280;73381;58.502;8.624;2023-10-31T03:49:49;98579.88;;;-1.87;77.81
83152;BME280;73381;58.502;8.624;2023-10-31T03:52:52;98800.75;;;-0.49;77.75
83152;BME280;73381;58.502;8.624;2023-10-31T03:55:55;98786.91;;;-0.64;78.44
83152;BME280;73381;58.502;8.624;2023-10-31T03:58:56;98795.84;;;-0.54;77.96
83152;BME280;73381;58.502;8.624;2023-10-31T04:01:58;98618.31;;;-1.65;78.63
83152;BME280;73381;58.502;8.624;2023-10-31T04:05:00;98602.06;;;-1.67;78.17
83152;BME280;73381;58.502;8.624;2023-10-31T04:08:03;98627.06;;;-1.52;77.98
83152;BME280;73381;58.502;8.624;2023-10-31T04:11:05;98728.34;;;-0.97;77.77
83152;BME280;73381;58.502;8.624;2023-10-31T04:14:07;98625.72;;;-1.59;78.33
83152;BME280;73381;58.502;8.624;2023-10-31T04:17:09;98812.13;;;-0.52;78.64
83152;BME280;73381;58.502;8.624;2023-10-31T04:20:11;98825.34;;;-0.56;78.34
83152;BME280;73381;58.502;8.624;2023-10-31T04:23:14;98818.16;;;-0.51;78.20
83152;BME280;73381;58.502;8.624;2023-10-31T04:26:16;98732.63;;;-1.11;77.45
83152;BME280;73381;58.502;8.624;2023-10-31T04:29:17;98832.41;;;-0.44;77.55
83152;BME280;73381;58.502;8.624;2023-10-31T04:32:19;98830.50;;;-0.41;78.14
83152;BME280;73381;58.502;8.624;2023-10-31T04:35:21;98818.28;;;-0.39;76.97
83152;BME280;73381;58.502;8.624;2023-10-31T04:38:25;98739.34;;;-0.93;77.45
83152;BME280;73381;58.502;8.624;2023-10-31T04:41:26;98656.28;;;-1.50;76.85
83152;BME280;73381;58.502;8.624;2023-10-31T04:44:28;98820.47;;;-0.47;78.29
83152;BME280;73381;58.502;8.624;2023-10-31T04:47:30;98682.31;;;-1.37;78.66
83152;BME280;73381;58.502;8.624;2023-10-31T04:50:32;98815.75;;;-0.54;78.29
83152;BME280;73381;58.502;8.624;2023-10-31T04:53:36;98837.69;;;-0.46;76.99
83152;BME280;73381;58.502;8.624;2023-10-31T04:56:37;98758.06;;;-0.88;77.23
83152;BME280;73381;58.502;8.624;2023-10-31T04:59:39;98768.09;;;-0.82;78.16
83152;BME280;73381;58.502;8.624;2023-10-31T05:02:41;98807.78;;;-0.51;77.65
83152;BME280;73381;58.502;8.624;2023-10-31T05:05:43;98701.63;;;-1.13;76.83
83152;BME280;73381;58.502;8.624;2023-10-31T05:08:46;98647.59;;;-1.49;76.92
83152;BME280;73381;58.502;8.624;2023-10-31T05:11:49;98612.31;;;-1.66;76.32
83152;BME280;73381;58.502;8.624;2023-10-31T05:14:50;98735.34;;;-0.99;77.47
83152;BME280;73381;58.502;8.624;2023-10-31T05:17:53;98775.69;;;-0.79;77.08
83152;BME280;73381;58.502;8.624;2023-10-31T05:20:54;98751.47;;;-0.94;77.63
83152;BME280;73381;58.502;8.624;2023-10-31T05:23:58;98822.50;;;-0.52;77.83
83152;BME280;73381;58.502;8.624;2023-10-31T05:26:59;98776.47;;;-0.93;77.58
83152;BME280;73381;58.502;8.624;2023-10-31T05:30:01;98737.88;;;-0.97;76.68
83152;BME280;73381;58.502;8.624;2023-10-31T05:33:03;98657.03;;;-1.48;77.05
83152;BME280;73381;58.502;8.624;2023-10-31T05:36:05;98837.38;;;-0.40;76.87
83152;BME280;73381;58.502;8.624;2023-10-31T05:39:09;98780.34;;;-0.70;76.87
83152;BME280;73381;58.502;8.624;2023-10-31T05:42:11;98682.97;;;-1.34;76.38
83152;BME280;73381;58.502;8.624;2023-10-31T05:45:12;98678.91;;;-1.38;77.54
83152;BME280;73381;58.502;8.624;2023-10-31T05:48:14;98799.13;;;-0.66;76.75
83152;BME280;73381;58.502;8.624;2023-10-31T05:51:17;98842.63;;;-0.41;76.41
83152;BME280;73381;58.502;8.624;2023-10-31T05:54:20;98654.63;;;-1.51;75.62
83152;BME280;73381;58.502;8.624;2023-10-31T05:57:22;98684.47;;;-1.30;76.36
83152;BME280;73381;58.502;8.624;2023-10-31T06:00:24;98810.66;;;-0.56;75.60
83152;BME280;73381;58.502;8.624;2023-10-31T06:03:26;98726.13;;;-1.18;76.97
83152;BME280;73381;58.502;8.624;2023-10-31T06:06:29;98598.44;;;-1.95;77.09
83152;BME280;73381;58.502;8.624;2023-10-31T06:09:33;98824.22;;;-0.67;76.61
83152;BME280;73381;58.502;8.624;2023-10-31T06:12:35;98777.94;;;-0.88;76.74
83152;BME280;73381;58.502;8.624;2023-10-31T06:15:36;98838.72;;;-0.48;76.78
83152;BME280;73381;58.502;8.624;2023-10-31T06:18:39;98775.31;;;-1.03;76.18
83152;BME280;73381;58.502;8.624;2023-10-31T06:21:41;98675.00;;;-1.61;76.60
83152;BME280;73381;58.502;8.624;2023-10-31T06:24:44;98851.41;;;-0.44;76.88
83152;BME280;73381;58.502;8.624;2023-10-31T06:27:46;98648.22;;;-1.75;77.24
83152;BME280;73381;58.502;8.624;2023-10-31T06:30:48;98748.00;;;-1.08;76.48
83152;BME280;73381;58.502;8.624;2023-10-31T06:33:50;98650.78;;;-1.60;76.58
83152;BME280;73381;58.502;8.624;2023-10-31T06:36:52;98601.78;;;-2.08;76.67
83152;BME280;73381;58.502;8.624;2023-10-31T06:39:55;98855.19;;;-0.49;77.39
83152;BME280;73381;58.502;8.624;2023-10-31T06:42:57;98858.53;;;-0.47;77.00
83152;BME280;73381;58.502;8.624;2023-10-31T06:45:59;98690.25;;;-1.56;77.11
83152;BME280;73381;58.502;8.624;2023-10-31T06:49:01;98762.25;;;-1.01;76.26
83152;BME280;73381;58.502;8.624;2023-10-31T06:52:04;98827.00;;;-0.70;77.31
83152;BME280;73381;58.502;8.624;2023-10-31T06:55:08;98833.63;;;-0.80;75.94
83152;BME280;73381;58.502;8.624;2023-10-31T06:58:10;98855.28;;;-0.51;76.91
83152;BME280;73381;58.502;8.624;2023-10-31T07:01:12;98722.91;;;-1.38;76.47
83152;BME280;73381;58.502;8.624;2023-10-31T07:04:14;98759.13;;;-1.22;76.44
83152;BME280;73381;58.502;8.624;2023-10-31T07:07:16;98701.22;;;-1.51;76.29
83152;BME280;73381;58.502;8.624;2023-10-31T07:10:19;98647.97;;;-1.87;76.69
83152;BME280;73381;58.502;8.624;2023-10-31T07:13:21;98851.28;;;-0.56;76.69
83152;BME280;73381;58.502;8.624;2023-10-31T07:16:23;98737.16;;;-1.31;76.55
83152;BME280;73381;58.502;8.624;2023-10-31T07:19:25;98786.50;;;-1.02;76.60
83152;BME280;73381;58.502;8.624;2023-10-31T07:22:27;98874.97;;;-0.33;76.29
83152;BME280;73381;58.502;8.624;2023-10-31T07:25:30;98687.00;;;-1.44;76.23
83152;BME280;73381;58.502;8.624;2023-10-31T07:28:32;98801.91;;;-0.85;76.29
83152;BME280;73381;58.502;8.624;2023-10-31T07:31:33;98859.91;;;-0.56;76.35
83152;BME280;73381;58.502;8.624;2023-10-31T07:34:35;98802.59;;;-0.81;76.97
83152;BME280;73381;58.502;8.624;2023-10-31T07:37:37;98715.88;;;-1.36;76.15
83152;BME280;73381;58.502;8.624;2023-10-31T07:40:41;98894.69;;;-0.30;76.48
83152;BME280;73381;58.502;8.624;2023-10-31T07:43:43;98904.56;;;-0.21;75.74
83152;BME280;73381;58.502;8.624;2023-10-31T07:46:44;98857.75;;;-0.64;76.08
83152;BME280;73381;58.502;8.624;2023-10-31T07:49:46;98852.19;;;-0.57;75.56
83152;BME280;73381;58.502;8.624;2023-10-31T07:52:48;98897.69;;;-0.22;76.43
83152;BME280;73381;58.502;8.624;2023-10-31T07:55:52;98830.91;;;-0.63;76.28
83152;BME280;73381;58.502;8.624;2023-10-31T07:58:54;98870.66;;;-0.48;75.91
83152;BME280;73381;58.502;8.624;2023-10-31T08:01:56;98692.34;;;-1.47;76.19
83152;BME280;73381;58.502;8.624;2023-10-31T08:04:58;98776.19;;;-0.88;75.04
83152;BME280;73381;58.502;8.624;2023-10-31T08:08:00;98726.53;;;-1.10;75.25
83152;BME280;73381;58.502;8.624;2023-10-31T08:11:03;98894.03;;;-0.04;75.70
83152;BME280;73381;58.502;8.624;2023-10-31T08:14:05;98888.19;;;-0.07;75.64
83152;BME280;73381;58.502;8.624;2023-10-31T08:17:07;98883.84;;;-0.07;76.12
83152;BME280;73381;58.502;8.624;2023-10-31T08:20:10;98685.97;;;-1.26;76.07
83152;BME280;73381;58.502;8.624;2023-10-31T08:23:12;98878.22;;;0.01;75.86
83152;BME280;73381;58.502;8.624;2023-10-31T08:26:16;98882.47;;;0.02;74.88
83152;BME280;73381;58.502;8.624;2023-10-31T08:29:18;98850.69;;;-0.32;74.35
83152;BME280;73381;58.502;8.624;2023-10-31T08:32:20;98873.66;;;0.05;75.22
83152;BME280;73381;58.502;8.624;2023-10-31T08:35:22;98891.56;;;0.09;75.49
83152;BME280;73381;58.502;8.624;2023-10-31T08:38:24;98850.31;;;0.05;74.81
83152;BME280;73381;58.502;8.624;2023-10-31T08:41:35;98722.28;;;-0.67;74.70
83152;BME280;73381;58.502;8.624;2023-10-31T08:44:39;98859.59;;;0.23;73.84
83152;BME280;73381;58.502;8.624;2023-10-31T08:47:41;98875.72;;;0.28;74.71
83152;BME280;73381;58.502;8.624;2023-10-31T08:50:49;98705.22;;;-0.71;73.77
83152;BME280;73381;58.502;8.624;2023-10-31T08:53:51;98890.75;;;0.37;73.78
83152;BME280;73381;58.502;8.624;2023-10-31T08:56:56;98833.06;;;0.18;73.59
83152;BME280;73381;58.502;8.624;2023-10-31T08:59:58;98839.00;;;0.20;73.50
83152;BME280;73381;58.502;8.624;2023-10-31T09:02:59;98746.59;;;-0.25;73.54
83152;BME280;73381;58.502;8.624;2023-10-31T09:06:02;98876.00;;;0.52;73.96
83152;BME280;73381;58.502;8.624;2023-10-31T09:09:04;98596.72;;;-1.20;72.50
83152;BME280;73381;58.502;8.624;2023-10-31T09:12:08;98843.66;;;0.43;72.69
83152;BME280;73381;58.502;8.624;2023-10-31T09:15:10;98672.75;;;-0.63;72.89
83152;BME280;73381;58.502;8.624;2023-10-31T09:18:12;98677.50;;;-0.55;73.20
83152;BME280;73381;58.502;8.624;2023-10-31T09:21:14;98686.56;;;-0.48;73.01
83152;BME280;73381;58.502;8.624;2023-10-31T09:24:16;98672.22;;;-0.53;71.99
83152;BME280;73381;58.502;8.624;2023-10-31T09:27:20;98645.06;;;-0.76;73.54
83152;BME280;73381;58.502;8.624;2023-10-31T09:30:22;98710.44;;;-0.28;72.80
83152;BME280;73381;58.502;8.624;2023-10-31T09:33:24;98872.63;;;0.78;71.99
83152;BME280;73381;58.502;8.624;2023-10-31T09:36:26;98741.03;;;-0.05;71.58
83152;BME280;73381;58.502;8.624;2023-10-31T09:39:28;98887.47;;;0.76;72.54
83152;BME280;73381;58.502;8.624;2023-10-31T09:42:32;98792.00;;;0.24;72.31
83152;BME280;73381;58.502;8.624;2023-10-31T09:45:34;98808.38;;;0.39;72.36
83152;BME280;73381;58.502;8.624;2023-10-31T09:48:36;98838.16;;;0.48;71.80
83152;BME280;73381;58.502;8.624;2023-10-31T09:51:39;98691.56;;;-0.31;72.17
83152;BME280;73381;58.502;8.624;2023-10-31T09:54:41;98886.19;;;0.69;71.97
83152;BME280;73381;58.502;8.624;2023-10-31T09:57:49;98844.09;;;0.50;72.15
83152;BME280;73381;58.502;8.624;2023-10-31T10:00:51;98873.28;;;0.68;71.79
83152;BME280;73381;58.502;8.624;2023-10-31T10:03:53;98695.56;;;-0.39;71.12
83152;BME280;73381;58.502;8.624;2023-10-31T10:06:59;98849.19;;;0.51;72.18
83152;BME280;73381;58.502;8.624;2023-10-31T10:10:01;98722.41;;;-0.12;72.73
83152;BME280;73381;58.502;8.624;2023-10-31T10:13:05;98712.59;;;-0.21;71.35
83152;BME280;73381;58.502;8.624;2023-10-31T10:16:07;98722.41;;;-0.26;70.00
83152;BME280;73381;58.502;8.624;2023-10-31T10:19:14;98730.66;;;-0.19;70.45
83152;BME280;73381;58.502;8.624;2023-10-31T10:22:19;98727.03;;;-0.31;70.28
83152;BME280;73381;58.502;8.624;2023-10-31T10:25:21;98768.53;;;0.12;71.21
83152;BME280;73381;58.502;8.624;2023-10-31T10:28:25;98905.00;;;1.01;71.65
83152;BME280;73381;58.502;8.624;2023-10-31T10:31:28;98844.63;;;0.55;72.04
83152;BME280;73381;58.502;8.624;2023-10-31T10:34:30;98746.09;;;0.11;71.09
83152;BME280;73381;58.502;8.624;2023-10-31T10:37:35;98857.06;;;0.64;70.94
83152;BME280;73381;58.502;8.624;2023-10-31T10:40:40;98802.25;;;0.40;70.54
83152;BME280;73381;58.502;8.624;2023-10-31T10:43:44;98866.78;;;0.89;70.17
83152;BME280;73381;58.502;8.624;2023-10-31T10:46:50;98910.88;;;1.17;70.01
83152;BME280;73381;58.502;8.624;2023-10-31T10:49:58;98820.03;;;0.75;70.40
83152;BME280;73381;58.502;8.624;2023-10-31T10:53:10;98907.06;;;1.23;69.72
83152;BME280;73381;58.502;8.624;2023-10-31T10:56:20;98761.00;;;0.36;69.75
83152;BME280;73381;58.502;8.624;2023-10-31T10:59:34;98676.81;;;-0.16;69.33
83152;BME280;73381;58.502;8.624;2023-10-31T11:02:41;98834.38;;;0.80;68.40
83152;BME280;73381;58.502;8.624;2023-10-31T11:05:45;98740.50;;;0.45;69.84
83152;BME280;73381;58.502;8.624;2023-10-31T11:08:47;98709.59;;;0.41;69.03
83152;BME280;73381;58.502;8.624;2023-10-31T11:11:50;98739.50;;;0.34;70.00
83152;BME280;73381;58.502;8.624;2023-10-31T11:14:55;98636.22;;;-0.17;68.50
83152;BME280;73381;58.502;8.624;2023-10-31T11:17:59;98899.16;;;1.52;67.90
83152;BME280;73381;58.502;8.624;2023-10-31T11:21:03;98890.72;;;1.48;69.84
83152;BME280;73381;58.502;8.624;2023-10-31T11:24:06;98855.16;;;1.22;70.48
83152;BME280;73381;58.502;8.624;2023-10-31T11:27:08;98706.13;;;0.27;69.50
83152;BME280;73381;58.502;8.624;2023-10-31T11:30:21;98721.63;;;0.29;70.27
83152;BME280;73381;58.502;8.624;2023-10-31T11:33:23;98643.22;;;-0.32;70.05
83152;BME280;73381;58.502;8.624;2023-10-31T11:36:25;98888.91;;;1.36;69.55
83152;BME280;73381;58.502;8.624;2023-10-31T11:39:27;98679.59;;;-0.05;69.10
83152;BME280;73381;58.502;8.624;2023-10-31T11:42:31;98697.31;;;0.30;68.41
83152;BME280;73381;58.502;8.624;2023-10-31T11:45:40;98702.69;;;0.27;68.77
83152;BME280;73381;58.502;8.624;2023-10-31T11:48:47;98779.03;;;0.66;69.65
83152;BME280;73381;58.502;8.624;2023-10-31T11:51:49;98708.34;;;0.34;69.94
83152;BME280;73381;58.502;8.624;2023-10-31T11:54:52;98772.38;;;0.62;69.78
83152;BME280;73381;58.502;8.624;2023-10-31T11:57:54;98689.38;;;0.19;69.49
83152;BME280;73381;58.502;8.624;2023-10-31T12:01:02;98876.22;;;1.31;69.46
83152;BME280;73381;58.502;8.624;2023-10-31T12:04:10;98879.44;;;1.35;70.18
83152;BME280;73381;58.502;8.624;2023-10-31T12:07:50;98887.13;;;1.36;69.33
83152;BME280;73381;58.502;8.624;2023-10-31T12:10:53;98675.69;;;0.03;69.55
83152;BME280;73381;58.502;8.624;2023-10-31T12:13:58;98530.41;;;-0.80;68.30
83152;BME280;73381;58.502;8.624;2023-10-31T12:17:05;98719.56;;;0.34;69.37
83152;BME280;73381;58.502;8.624;2023-10-31T12:20:10;98897.53;;;1.36;69.78
83152;BME280;73381;58.502;8.624;2023-10-31T12:23:19;98639.25;;;-0.37;69.98
83152;BME280;73381;58.502;8.624;2023-10-31T12:26:29;98734.94;;;0.37;69.29
83152;BME280;73381;58.502;8.624;2023-10-31T12:29:33;98830.63;;;0.72;69.33
83152;BME280;73381;58.502;8.624;2023-10-31T12:32:40;98778.56;;;0.32;69.32
83152;BME280;73381;58.502;8.624;2023-10-31T12:36:14;98797.81;;;0.56;69.59
83152;BME280;73381;58.502;8.624;2023-10-31T12:58:11;98755.94;;;0.06;68.66
83152;BME280;73381;58.502;8.624;2023-10-31T13:01:24;98811.66;;;0.43;68.64
83152;BME280;73381;58.502;8.624;2023-10-31T13:04:42;98668.06;;;-0.42;69.48
83152;BME280;73381;58.502;8.624;2023-10-31T13:11:21;98752.97;;;0.12;70.14
83152;BME280;73381;58.502;8.624;2023-10-31T13:14:40;98937.06;;;1.29;68.45
83152;BME280;73381;58.502;8.624;2023-10-31T13:21:04;98753.78;;;0.26;68.50
83152;BME280;73381;58.502;8.624;2023-10-31T13:24:09;98838.22;;;0.75;70.55
83152;BME280;73381;58.502;8.624;2023-10-31T13:40:35;98898.09;;;1.41;68.17
83152;BME280;73381;58.502;8.624;2023-10-31T13:43:41;98783.53;;;0.49;69.34
83152;BME280;73381;58.502;8.624;2023-10-31T13:46:45;98544.09;;;-1.06;69.82
83152;BME280;73381;58.502;8.624;2023-10-31T13:49:57;98729.63;;;-0.03;69.23
83152;BME280;73381;58.502;8.624;2023-10-31T13:53:06;98574.41;;;-1.37;67.94
83152;BME280;73381;58.502;8.624;2023-10-31T13:59:24;98822.41;;;0.08;70.17
83152;BME280;73381;58.502;8.624;2023-10-31T14:02:28;98880.72;;;0.59;69.95
83152;BME280;73381;58.502;8.624;2023-10-31T14:05:34;98806.72;;;-0.05;69.20
83152;BME280;73381;58.502;8.624;2023-10-31T14:08:39;98809.31;;;-0.05;70.00
83152;BME280;73381;58.502;8.624;2023-10-31T14:11:42;98897.06;;;0.47;70.75
83152;BME280;73381;58.502;8.624;2023-10-31T14:14:50;98976.19;;;0.99;69.99
83152;BME280;73381;58.502;8.624;2023-10-31T14:17:54;98803.50;;;-0.08;70.48
83152;BME280;73381;58.502;8.624;2023-10-31T14:24:20;98570.78;;;-1.78;70.12
83152;BME280;73381;58.502;8.624;2023-10-31T14:30:34;98823.03;;;-0.03;70.92
83152;BME280;73381;58.502;8.624;2023-10-31T14:43:37;98602.44;;;-1.59;70.75
83152;BME280;73381;58.502;8.624;2023-10-31T14:46:47;98863.81;;;-0.05;72.21
83152;BME280;73381;58.502;8.624;2023-10-31T14:49:57;99002.84;;;0.74;71.36
83152;BME280;73381;58.502;8.624;2023-10-31T14:52:59;98937.13;;;0.29;71.45
83152;BME280;73381;58.502;8.624;2023-10-31T14:59:22;98921.69;;;0.12;71.28
83152;BME280;73381;58.502;8.624;2023-10-31T15:15:41;98937.03;;;-0.14;72.22
83152;BME280;73381;58.502;8.624;2023-10-31T15:18:56;98647.78;;;-1.84;72.11
83152;BME280;73381;58.502;8.624;2023-10-31T15:22:03;98615.28;;;-2.03;72.17
83152;BME280;73381;58.502;8.624;2023-10-31T15:28:35;99019.69;;;0.52;70.75
83152;BME280;73381;58.502;8.624;2023-10-31T15:31:46;98865.28;;;-0.45;71.87
83152;BME280;73381;58.502;8.624;2023-10-31T15:34:49;98791.09;;;-0.92;71.46
83152;BME280;73381;58.502;8.624;2023-10-31T15:41:32;98999.81;;;0.37;71.80
83152;BME280;73381;58.502;8.624;2023-10-31T15:47:42;98901.69;;;-0.46;72.94
83152;BME280;73381;58.502;8.624;2023-10-31T15:51:05;98799.38;;;-1.01;72.11
83152;BME280;73381;58.502;8.624;2023-10-31T15:54:08;98923.00;;;-0.25;71.30
83152;BME280;73381;58.502;8.624;2023-10-31T15:57:12;98860.38;;;-0.79;71.06
83152;BME280;73381;58.502;8.624;2023-10-31T16:00:15;99045.38;;;0.43;70.52
83152;BME280;73381;58.502;8.624;2023-10-31T16:03:18;98990.28;;;0.08;70.58
83152;BME280;73381;58.502;8.624;2023-10-31T16:06:21;98928.03;;;-0.38;71.29
83152;BME280;73381;58.502;8.624;2023-10-31T16:09:24;98980.69;;;-0.06;70.53
83152;BME280;73381;58.502;8.624;2023-10-31T16:12:26;98970.34;;;-0.22;69.61
83152;BME280;73381;58.502;8.624;2023-10-31T16:15:28;98961.66;;;-0.37;71.72
83152;BME280;73381;58.502;8.624;2023-10-31T16:18:32;99057.69;;;0.39;71.46
83152;BME280;73381;58.502;8.624;2023-10-31T16:21:35;99083.09;;;0.34;71.09
83152;BME280;73381;58.502;8.624;2023-10-31T16:24:39;98811.25;;;-1.44;70.45
83152;BME280;73381;58.502;8.624;2023-10-31T16:27:41;98809.69;;;-1.31;70.66
83152;BME280;73381;58.502;8.624;2023-10-31T16:30:44;99020.88;;;-0.13;70.81
83152;BME280;73381;58.502;8.624;2023-10-31T16:33:48;98901.19;;;-0.83;70.21
83152;BME280;73381;58.502;8.624;2023-10-31T16:36:50;99021.03;;;-0.16;70.36
83152;BME280;73381;58.502;8.624;2023-10-31T16:39:52;98922.75;;;-0.82;70.06
83152;BME280;73381;58.502;8.624;2023-10-31T16:42:56;98996.66;;;-0.28;70.45
83152;BME280;73381;58.502;8.624;2023-10-31T16:45:58;99094.81;;;0.25;71.17
83152;BME280;73381;58.502;8.624;2023-10-31T16:49:02;98868.06;;;-1.41;70.27
83152;BME280;73381;58.502;8.624;2023-10-31T16:52:05;99081.78;;;0.11;71.37
83152;BME280;73381;58.502;8.624;2023-10-31T16:55:08;98991.44;;;-0.44;70.53
83152;BME280;73381;58.502;8.624;2023-10-31T16:58:11;99086.41;;;0.06;70.98
83152;BME280;73381;58.502;8.624;2023-10-31T17:01:15;98905.09;;;-0.92;69.08
83152;BME280;73381;58.502;8.624;2023-10-31T17:04:20;98981.91;;;-0.59;70.07
83152;BME280;73381;58.502;8.624;2023-10-31T17:07:24;99005.84;;;-0.38;70.35
83152;BME280;73381;58.502;8.624;2023-10-31T17:10:28;98988.00;;;-0.44;70.26
83152;BME280;73381;58.502;8.624;2023-10-31T17:13:30;98968.88;;;-0.57;70.32
83152;BME280;73381;58.502;8.624;2023-10-31T17:16:33;99128.91;;;0.35;70.61
83152;BME280;73381;58.502;8.624;2023-10-31T17:19:39;99143.91;;;0.30;71.17
83152;BME280;73381;58.502;8.624;2023-10-31T17:22:43;98833.69;;;-1.76;70.53
83152;BME280;73381;58.502;8.624;2023-10-31T17:25:46;98913.50;;;-1.35;71.98
83152;BME280;73381;58.502;8.624;2023-10-31T17:28:54;98843.31;;;-1.62;71.75
83152;BME280;73381;58.502;8.624;2023-10-31T17:31:58;98902.31;;;-1.36;70.35
83152;BME280;73381;58.502;8.624;2023-10-31T17:35:17;98894.47;;;-1.34;71.29
83152;BME280;73381;58.502;8.624;2023-10-31T17:38:24;99183.94;;;0.26;71.28
83152;BME280;73381;58.502;8.624;2023-10-31T17:44:57;99080.88;;;-0.35;70.78